Time;durP1;ratioP1;P1;durP2;ratioP2;P2;SDS_P1;SDS_P2;PMS_P1;PMS_P2;Temp;Humidity;BMP_temperature;BMP_pressure;BME280_temperature;BME280_humidity;BME280_pressure;Samples;Min_cycle;Max_cycle;Signal;HPM_P1;HPM_P2
2023/04/15 00:01:26;;;;;;;42.15;24.63;;;8.40;99.90;;;;;;4911794;29;20044;-75
2023/04/15 00:03:55;;;;;;;40.25;23.42;;;8.20;99.90;;;;;;4913376;29;20052;-76
2023/04/15 00:06:25;;;;;;;34.25;22.05;;;8.10;99.90;;;;;;4912643;29;20080;-75
2023/04/15 00:08:52;;;;;;;36.05;21.80;;;8.00;99.90;;;;;;4913990;29;20044;-77
2023/04/15 00:11:19;;;;;;;35.40;22.27;;;7.80;99.90;;;;;;4913240;29;20052;-76
2023/04/15 00:13:47;;;;;;;36.35;21.88;;;7.70;99.90;;;;;;4911759;29;20163;-76
2023/04/15 00:16:15;;;;;;;36.55;22.60;;;7.50;99.90;;;;;;4910794;29;20040;-77
2023/04/15 00:18:42;;;;;;;37.10;24.52;;;7.50;99.90;;;;;;4911795;29;20088;-75
2023/04/15 00:21:09;;;;;;;38.60;25.42;;;7.30;99.90;;;;;;4911427;29;20047;-77
2023/04/15 00:23:38;;;;;;;44.15;28.65;;;7.20;99.90;;;;;;4896135;29;20166;-77
2023/04/15 00:26:06;;;;;;;35.97;23.45;;;7.10;99.90;;;;;;4912139;29;20044;-76
2023/04/15 00:28:33;;;;;;;36.75;24.30;;;7.10;99.90;;;;;;4912934;29;20508;-77
2023/04/15 00:31:01;;;;;;;37.13;22.90;;;7.10;99.90;;;;;;4918477;29;20299;-78
2023/04/15 00:33:28;;;;;;;38.45;23.92;;;7.00;99.90;;;;;;4917674;29;20453;-76
2023/04/15 00:35:56;;;;;;;41.67;26.65;;;7.00;99.90;;;;;;4915463;29;20047;-78
2023/04/15 00:38:23;;;;;;;44.58;28.20;;;6.90;99.90;;;;;;4913737;29;20072;-77
2023/04/15 00:40:52;;;;;;;44.80;26.55;;;6.80;99.90;;;;;;4912461;29;20044;-77
2023/04/15 00:43:20;;;;;;;45.70;26.05;;;6.80;99.90;;;;;;4910681;29;20058;-77
2023/04/15 00:45:47;;;;;;;45.65;25.10;;;6.80;99.90;;;;;;4910848;29;20171;-75
2023/04/15 00:48:16;;;;;;;40.75;23.05;;;6.70;99.90;;;;;;4906615;29;20130;-75
2023/04/15 00:50:45;;;;;;;36.38;19.63;;;6.70;99.90;;;;;;4922787;29;20041;-76
2023/04/15 00:53:13;;;;;;;33.13;19.13;;;6.70;99.90;;;;;;4894927;29;20056;-76
2023/04/15 00:55:40;;;;;;;34.42;21.38;;;6.80;99.90;;;;;;4912601;29;20075;-76
2023/04/15 00:58:09;;;;;;;31.33;19.55;;;6.80;99.90;;;;;;4914833;29;20044;-74
2023/04/15 01:00:37;;;;;;;32.25;18.23;;;6.80;99.90;;;;;;4915664;29;20099;-77
2023/04/15 01:03:04;;;;;;;25.38;12.75;;;6.80;99.90;;;;;;4914268;29;20123;-77
2023/04/15 01:05:33;;;;;;;24.73;12.70;;;6.80;99.90;;;;;;4914085;29;20404;-74
2023/04/15 01:08:00;;;;;;;24.88;13.20;;;6.70;99.90;;;;;;4915402;29;20052;-75
2023/04/15 01:10:28;;;;;;;23.40;12.27;;;6.80;99.90;;;;;;4914544;29;20504;-76
2023/04/15 01:12:55;;;;;;;22.33;13.10;;;6.70;99.90;;;;;;4915035;29;20225;-76
2023/04/15 01:15:25;;;;;;;23.73;14.48;;;6.70;99.90;;;;;;4898213;29;20048;-78
2023/04/15 01:17:52;;;;;;;25.55;14.40;;;6.60;99.90;;;;;;4914649;29;20132;-76
2023/04/15 01:20:20;;;;;;;25.40;15.45;;;6.50;99.90;;;;;;4917759;29;20048;-75
2023/04/15 01:22:49;;;;;;;28.20;16.38;;;6.40;99.90;;;;;;4899524;29;20072;-75
2023/04/15 01:25:20;;;;;;;28.48;15.55;;;6.30;99.90;;;;;;4914381;29;20096;-77
2023/04/15 01:27:49;;;;;;;32.65;17.80;;;6.20;99.90;;;;;;4914647;29;20123;-75
2023/04/15 01:30:16;;;;;;;29.92;17.23;;;6.20;99.90;;;;;;4914885;29;20040;-76
2023/04/15 01:32:44;;;;;;;29.38;15.57;;;6.10;99.90;;;;;;4913894;29;20040;-77
2023/04/15 01:35:12;;;;;;;26.35;16.25;;;6.00;99.90;;;;;;4905942;29;20044;-76
2023/04/15 01:37:39;;;;;;;26.27;14.85;;;6.00;99.90;;;;;;4915300;29;20040;-74
2023/04/15 01:40:08;;;;;;;28.13;15.85;;;6.10;99.90;;;;;;4916616;29;20080;-75
2023/04/15 01:42:37;;;;;;;30.95;16.27;;;6.10;99.90;;;;;;4903442;29;20080;-78
2023/04/15 01:45:07;;;;;;;32.38;20.02;;;6.10;99.90;;;;;;4913705;29;20485;-77
2023/04/15 01:47:38;;;;;;;30.00;18.95;;;6.00;99.90;;;;;;4901103;29;20056;-76
2023/04/15 01:50:07;;;;;;;30.15;18.63;;;6.00;99.90;;;;;;4915236;29;20054;-76
2023/04/15 01:52:34;;;;;;;27.10;18.10;;;5.90;99.90;;;;;;4914188;29;20059;-77
2023/04/15 01:55:03;;;;;;;27.80;16.77;;;5.90;99.90;;;;;;4913620;29;20044;-75
2023/04/15 01:57:31;;;;;;;27.90;17.67;;;5.90;99.90;;;;;;4898020;29;20526;-75
2023/04/15 01:59:58;;;;;;;30.48;19.48;;;5.80;99.90;;;;;;4895662;29;20100;-75
2023/04/15 02:02:27;;;;;;;27.40;16.55;;;5.70;99.90;;;;;;4913877;29;20441;-76
2023/04/15 02:04:56;;;;;;;22.73;14.73;;;5.70;99.90;;;;;;4913468;29;20128;-76
2023/04/15 02:07:24;;;;;;;21.90;14.20;;;5.70;99.90;;;;;;4914152;29;20071;-76
2023/04/15 02:09:52;;;;;;;23.50;14.52;;;5.70;99.90;;;;;;4915250;29;20044;-77
2023/04/15 02:12:19;;;;;;;22.38;13.77;;;5.70;99.90;;;;;;4912584;29;20054;-77
2023/04/15 02:14:47;;;;;;;25.20;14.80;;;5.60;99.90;;;;;;4913420;29;20087;-74
2023/04/15 02:17:16;;;;;;;30.45;18.23;;;5.60;99.90;;;;;;4912496;29;20129;-76
2023/04/15 02:19:45;;;;;;;31.15;17.20;;;5.50;99.90;;;;;;4913139;29;20437;-77
2023/04/15 02:22:17;;;;;;;27.80;16.40;;;5.40;99.90;;;;;;4912922;29;20055;-75
2023/04/15 02:24:47;;;;;;;28.55;15.65;;;5.30;99.90;;;;;;4913090;29;20067;-74
2023/04/15 02:27:17;;;;;;;30.75;17.42;;;5.30;99.90;;;;;;4896480;29;20524;-75
2023/04/15 02:29:45;;;;;;;20.65;12.25;;;5.30;99.90;;;;;;4897433;29;20067;-77
2023/04/15 02:32:13;;;;;;;20.27;11.68;;;5.30;99.90;;;;;;4896999;29;20500;-76
2023/04/15 02:34:41;;;;;;;25.52;13.65;;;5.30;99.90;;;;;;4914376;29;20388;-77
2023/04/15 02:37:13;;;;;;;18.67;10.55;;;5.30;99.90;;;;;;4897416;29;20492;-79
2023/04/15 02:39:40;;;;;;;22.42;11.55;;;5.30;99.90;;;;;;4914943;29;20044;-78
2023/04/15 02:42:08;;;;;;;18.52;11.05;;;5.30;99.90;;;;;;4912224;29;20054;-76
2023/04/15 02:44:35;;;;;;;24.17;11.40;;;5.30;99.90;;;;;;4897213;29;20458;-75
2023/04/15 02:47:06;;;;;;;21.00;11.52;;;5.30;99.90;;;;;;4912418;29;20575;-76
2023/04/15 02:49:33;;;;;;;22.58;12.23;;;5.30;99.90;;;;;;4912364;29;20706;-76
2023/04/15 02:52:01;;;;;;;21.98;12.25;;;5.30;99.90;;;;;;4913942;29;20570;-77
2023/04/15 02:54:31;;;;;;;21.45;13.18;;;5.40;99.90;;;;;;4896772;29;20448;-77
2023/04/15 02:56:59;;;;;;;19.15;11.93;;;5.40;99.90;;;;;;4910696;29;20056;-76
2023/04/15 02:59:27;;;;;;;24.75;12.48;;;5.40;99.90;;;;;;4912040;29;20048;-78
2023/04/15 03:01:59;;;;;;;26.65;13.35;;;5.50;99.90;;;;;;4912679;29;20052;-75
2023/04/15 03:04:28;;;;;;;19.02;10.48;;;5.50;99.90;;;;;;4897855;29;20048;-77
2023/04/15 03:06:56;;;;;;;18.67;10.23;;;5.50;99.90;;;;;;4915918;29;20052;-77
2023/04/15 03:09:25;;;;;;;22.27;9.88;;;5.50;99.90;;;;;;4901316;29;20096;-77
2023/04/15 03:11:55;;;;;;;16.50;9.68;;;5.50;99.90;;;;;;4900504;29;20052;-77
2023/04/15 03:14:24;;;;;;;26.15;15.55;;;5.40;99.90;;;;;;4912336;29;20135;-75
2023/04/15 03:16:52;;;;;;;34.28;18.95;;;5.30;99.90;;;;;;4896850;29;20052;-76
2023/04/15 03:19:19;;;;;;;28.50;16.13;;;5.20;99.90;;;;;;4896631;29;20040;-77
2023/04/15 03:21:47;;;;;;;24.27;14.00;;;5.00;99.90;;;;;;4912585;29;20048;-75
2023/04/15 03:24:14;;;;;;;18.35;12.55;;;4.90;99.90;;;;;;4911146;29;20432;-76
2023/04/15 03:26:42;;;;;;;20.42;11.98;;;4.90;99.90;;;;;;4910684;29;20040;-77
2023/04/15 03:29:14;;;;;;;21.52;11.50;;;4.90;99.90;;;;;;4896341;29;20040;-75
2023/04/15 03:31:42;;;;;;;23.33;14.10;;;4.90;99.90;;;;;;4912595;29;20048;-77
2023/04/15 03:34:09;;;;;;;16.95;11.57;;;4.90;99.90;;;;;;4913409;29;20044;-77
2023/04/15 03:36:37;;;;;;;21.70;14.00;;;4.90;99.90;;;;;;4915732;29;20052;-78
2023/04/15 03:39:05;;;;;;;33.22;22.63;;;4.90;99.90;;;;;;4911036;29;20040;-77
2023/04/15 03:41:32;;;;;;;22.33;14.02;;;4.90;99.90;;;;;;4911569;29;20058;-76
2023/04/15 03:44:00;;;;;;;23.33;14.73;;;4.90;99.90;;;;;;4911658;29;20044;-74
2023/04/15 03:46:29;;;;;;;19.90;12.70;;;4.90;99.90;;;;;;4911175;29;20052;-77
2023/04/15 03:48:57;;;;;;;22.92;13.10;;;4.90;99.90;;;;;;4910851;29;20055;-76
2023/04/15 03:51:25;;;;;;;21.67;12.75;;;4.90;99.90;;;;;;4911125;29;20139;-76
2023/04/15 03:53:52;;;;;;;20.08;12.05;;;4.80;99.90;;;;;;4910987;29;20103;-76
2023/04/15 03:56:20;;;;;;;21.67;13.13;;;4.80;99.90;;;;;;4916221;29;20052;-76
2023/04/15 03:58:47;;;;;;;20.98;13.10;;;4.70;99.90;;;;;;4911036;29;20044;-77
2023/04/15 04:01:15;;;;;;;19.15;12.70;;;4.70;99.90;;;;;;4911382;29;20044;-78
2023/04/15 04:03:44;;;;;;;23.02;13.43;;;4.60;99.90;;;;;;4910570;29;20591;-78
2023/04/15 04:06:11;;;;;;;19.48;12.85;;;4.60;99.90;;;;;;4910294;29;20036;-74
2023/04/15 04:08:39;;;;;;;19.88;12.10;;;4.50;99.90;;;;;;4909698;29;20053;-76
2023/04/15 04:11:07;;;;;;;47.33;13.45;;;4.60;99.90;;;;;;4911024;29;20510;-76
2023/04/15 04:13:34;;;;;;;15.82;9.27;;;4.60;99.90;;;;;;4910985;29;20565;-77
2023/04/15 04:16:03;;;;;;;16.42;9.00;;;4.60;99.90;;;;;;4914869;29;20040;-76
2023/04/15 04:18:31;;;;;;;17.67;11.00;;;4.60;99.90;;;;;;4912165;29;20131;-77
2023/04/15 04:21:00;;;;;;;19.20;10.75;;;4.70;99.90;;;;;;4910941;29;20051;-76
2023/04/15 04:23:27;;;;;;;21.50;11.27;;;4.60;99.90;;;;;;4911080;29;20059;-78
2023/04/15 04:25:55;;;;;;;22.90;12.05;;;4.60;99.90;;;;;;4911008;29;20143;-77
2023/04/15 04:28:22;;;;;;;23.13;12.18;;;4.60;99.90;;;;;;4912051;29;20246;-78
2023/04/15 04:30:50;;;;;;;19.20;10.75;;;4.70;99.90;;;;;;4910348;29;20710;-75
2023/04/15 04:33:18;;;;;;;19.05;10.48;;;4.80;99.90;;;;;;4895131;29;20047;-77
2023/04/15 04:35:45;;;;;;;16.50;10.73;;;5.00;99.90;;;;;;4909946;29;20098;-76
2023/04/15 04:38:14;;;;;;;22.77;10.98;;;5.30;99.90;;;;;;4912078;29;20477;-77
2023/04/15 04:40:41;;;;;;;19.38;10.73;;;5.50;99.90;;;;;;4911917;29;20071;-76
2023/04/15 04:43:09;;;;;;;20.40;11.82;;;5.70;99.90;;;;;;4911768;29;20048;-76
2023/04/15 04:45:36;;;;;;;18.55;11.75;;;5.90;99.90;;;;;;4912573;29;20088;-77
2023/04/15 04:48:05;;;;;;;24.85;14.40;;;6.00;99.90;;;;;;4911722;29;20119;-75
2023/04/15 04:50:34;;;;;;;21.08;12.15;;;6.20;99.90;;;;;;4911922;29;20056;-79
2023/04/15 04:53:02;;;;;;;25.13;11.68;;;6.30;99.90;;;;;;4912165;29;20047;-76
2023/04/15 04:55:31;;;;;;;21.30;10.93;;;6.50;99.90;;;;;;4910759;29;20064;-77
2023/04/15 04:57:59;;;;;;;20.67;12.00;;;6.80;99.90;;;;;;4911730;29;20040;-75
2023/04/15 05:00:26;;;;;;;21.08;12.65;;;6.90;99.90;;;;;;4910389;29;20054;-75
2023/04/15 05:02:54;;;;;;;22.98;14.70;;;7.00;99.90;;;;;;4910298;29;20549;-76
2023/04/15 05:05:21;;;;;;;26.83;14.40;;;7.20;99.90;;;;;;4910370;29;20485;-75
2023/04/15 05:07:49;;;;;;;23.67;14.10;;;7.20;99.90;;;;;;4910500;29;20044;-78
2023/04/15 05:10:17;;;;;;;28.83;15.73;;;7.30;99.90;;;;;;4910788;29;20132;-74
2023/04/15 05:12:46;;;;;;;45.20;21.63;;;7.50;99.90;;;;;;4911284;29;20048;-76
2023/04/15 05:15:14;;;;;;;27.35;14.75;;;7.60;99.90;;;;;;4911196;29;20597;-76
2023/04/15 05:17:41;;;;;;;23.52;14.15;;;7.60;99.90;;;;;;4909302;29;20044;-77
2023/04/15 05:20:10;;;;;;;25.00;12.68;;;7.50;99.90;;;;;;4910054;29;20036;-78
2023/04/15 05:22:38;;;;;;;20.73;11.75;;;7.60;99.90;;;;;;4910834;29;20052;-77
2023/04/15 05:25:06;;;;;;;19.48;11.55;;;7.60;99.90;;;;;;4910882;29;20423;-76
2023/04/15 05:27:34;;;;;;;22.35;11.63;;;7.60;99.90;;;;;;4908899;29;20404;-75
2023/04/15 05:30:03;;;;;;;26.67;12.82;;;7.70;99.90;;;;;;4908516;29;20096;-76
2023/04/15 05:32:31;;;;;;;19.42;11.35;;;7.90;99.90;;;;;;4894886;29;20056;-77
2023/04/15 05:34:58;;;;;;;24.98;12.88;;;8.10;99.90;;;;;;4894118;29;20481;-77
2023/04/15 05:37:25;;;;;;;21.05;11.82;;;8.40;99.90;;;;;;4909495;29;20060;-77
2023/04/15 05:39:53;;;;;;;26.15;13.20;;;8.80;99.90;;;;;;4910057;29;20519;-76
2023/04/15 05:42:20;;;;;;;26.98;13.95;;;9.20;99.90;;;;;;4911983;29;20102;-75
2023/04/15 05:44:48;;;;;;;23.35;13.35;;;9.30;99.90;;;;;;4916507;29;20055;-76
2023/04/15 05:47:17;;;;;;;31.00;13.25;;;9.40;99.90;;;;;;4921615;29;20044;-76
2023/04/15 05:49:44;;;;;;;25.38;14.82;;;9.60;99.90;;;;;;4919034;29;20063;-77
2023/04/15 05:52:11;;;;;;;39.33;21.50;;;9.80;99.90;;;;;;4915214;29;20048;-77
2023/04/15 05:54:39;;;;;;;22.75;12.40;;;10.00;99.90;;;;;;4917241;29;20131;-76
2023/04/15 05:57:07;;;;;;;23.63;12.25;;;10.00;99.90;;;;;;4911891;29;20126;-75
2023/04/15 05:59:35;;;;;;;15.35;9.70;;;10.00;99.90;;;;;;4912594;29;20051;-76
2023/04/15 06:02:03;;;;;;;19.73;10.88;;;9.90;99.90;;;;;;4913946;29;20048;-76
2023/04/15 06:04:32;;;;;;;16.00;8.98;;;9.70;99.90;;;;;;4913998;29;20032;-74
2023/04/15 06:06:59;;;;;;;15.40;8.27;;;9.60;99.90;;;;;;4912744;29;20040;-76
2023/04/15 06:09:27;;;;;;;12.80;7.57;;;9.80;99.90;;;;;;4912489;29;20048;-76
2023/04/15 06:11:55;;;;;;;11.55;7.78;;;10.00;99.90;;;;;;4912006;29;20532;-75
2023/04/15 06:14:23;;;;;;;15.98;9.90;;;10.40;99.90;;;;;;4912780;29;20040;-77
2023/04/15 06:16:51;;;;;;;15.15;8.48;;;10.80;99.90;;;;;;4896375;29;20051;-76
2023/04/15 06:19:18;;;;;;;15.60;8.20;;;11.10;99.90;;;;;;4911752;29;20064;-77
2023/04/15 06:21:47;;;;;;;16.77;9.57;;;11.60;99.90;;;;;;4912906;29;20131;-75
2023/04/15 06:24:15;;;;;;;16.23;9.73;;;11.90;99.90;;;;;;4912476;29;20108;-75
2023/04/15 06:26:42;;;;;;;19.35;10.68;;;12.30;99.90;;;;;;4911412;29;20040;-74
2023/04/15 06:29:09;;;;;;;17.27;9.90;;;12.60;99.90;;;;;;4914511;29;20200;-77
2023/04/15 06:31:37;;;;;;;19.58;10.18;;;12.60;99.90;;;;;;4912867;29;20040;-76
2023/04/15 06:34:05;;;;;;;17.23;9.88;;;13.10;99.90;;;;;;4912906;29;20480;-77
2023/04/15 06:36:32;;;;;;;19.13;10.50;;;13.70;99.90;;;;;;4897714;29;20128;-75
2023/04/15 06:39:01;;;;;;;16.88;10.52;;;14.10;94.60;;;;;;4912236;29;20706;-75
2023/04/15 06:41:29;;;;;;;13.50;8.50;;;14.20;90.80;;;;;;4913953;29;20568;-74
2023/04/15 06:43:56;;;;;;;13.50;8.13;;;14.30;89.60;;;;;;4913736;29;20504;-75
2023/04/15 06:46:24;;;;;;;13.32;8.43;;;14.60;87.90;;;;;;4912425;29;20044;-76
2023/04/15 06:48:51;;;;;;;13.25;8.70;;;14.80;86.30;;;;;;4913741;29;20131;-74
2023/04/15 06:51:19;;;;;;;15.48;8.48;;;15.10;82.90;;;;;;4913232;29;20131;-75
2023/04/15 06:53:46;;;;;;;15.27;8.77;;;15.60;79.70;;;;;;4913653;29;20044;-74
2023/04/15 06:56:15;;;;;;;14.82;8.60;;;15.80;77.20;;;;;;4920357;29;20067;-74
2023/04/15 06:58:43;;;;;;;14.38;7.75;;;16.10;75.30;;;;;;4914055;29;20335;-77
2023/04/15 07:01:10;;;;;;;18.80;7.75;;;16.20;73.60;;;;;;4899580;29;20044;-75
2023/04/15 07:03:38;;;;;;;15.65;7.70;;;16.00;71.20;;;;;;4913567;29;20041;-75
2023/04/15 07:06:06;;;;;;;12.35;7.18;;;15.70;70.30;;;;;;4911361;29;20059;-75
2023/04/15 07:08:33;;;;;;;12.20;6.70;;;15.60;69.90;;;;;;4912751;29;20048;-74
2023/04/15 07:11:01;;;;;;;11.15;5.90;;;15.30;69.90;;;;;;4912079;29;20045;-76
2023/04/15 07:13:32;;;;;;;13.07;7.10;;;15.30;70.00;;;;;;4913124;29;20051;-74
2023/04/15 07:16:00;;;;;;;12.88;7.20;;;15.40;70.50;;;;;;4912795;29;20044;-75
2023/04/15 07:18:27;;;;;;;11.98;5.70;;;15.80;69.40;;;;;;4913257;29;20537;-76
2023/04/15 07:20:55;;;;;;;13.30;6.22;;;15.90;67.50;;;;;;4912215;29;20056;-75
2023/04/15 07:23:22;;;;;;;8.68;4.63;;;15.90;65.80;;;;;;4911419;29;20048;-74
2023/04/15 07:25:51;;;;;;;7.53;4.90;;;16.30;65.30;;;;;;4911239;29;20040;-76
2023/04/15 07:28:18;;;;;;;11.95;6.57;;;16.60;63.70;;;;;;4911781;29;20637;-76
2023/04/15 07:30:47;;;;;;;11.25;6.30;;;16.90;62.20;;;;;;4912862;29;20062;-76
2023/04/15 07:33:15;;;;;;;7.40;4.45;;;17.10;60.30;;;;;;4912083;29;20115;-75
2023/04/15 07:35:42;;;;;;;8.68;5.28;;;17.20;58.90;;;;;;4910835;29;20052;-75
2023/04/15 07:38:11;;;;;;;6.95;4.82;;;17.40;58.10;;;;;;4911857;29;20044;-76
2023/04/15 07:40:39;;;;;;;14.05;7.78;;;17.40;57.10;;;;;;4912038;29;20055;-75
2023/04/15 07:43:06;;;;;;;6.03;4.22;;;17.50;56.60;;;;;;4911477;29;20040;-74
2023/04/15 07:45:34;;;;;;;8.52;4.95;;;17.70;56.20;;;;;;4912128;29;20040;-75
2023/04/15 07:48:03;;;;;;;10.70;4.65;;;17.80;54.60;;;;;;4912090;29;20715;-74
2023/04/15 07:50:30;;;;;;;7.88;4.70;;;17.70;53.00;;;;;;4912119;29;20051;-75
2023/04/15 07:52:58;;;;;;;13.05;6.10;;;17.90;53.40;;;;;;4896018;29;20044;-76
2023/04/15 07:55:25;;;;;;;9.07;4.90;;;18.00;53.80;;;;;;4911337;29;20060;-76
2023/04/15 07:57:53;;;;;;;9.48;4.60;;;18.00;53.10;;;;;;4912881;29;20048;-77
2023/04/15 08:00:20;;;;;;;10.20;4.88;;;17.90;53.00;;;;;;4913554;29;20040;-74
2023/04/15 08:02:48;;;;;;;8.32;5.07;;;17.80;53.90;;;;;;4912422;29;20115;-76
2023/04/15 08:05:17;;;;;;;10.90;6.25;;;18.00;54.50;;;;;;4897754;29;20130;-76
2023/04/15 08:07:45;;;;;;;16.20;8.30;;;18.00;54.20;;;;;;4895444;29;20055;-74
2023/04/15 08:10:12;;;;;;;11.98;6.03;;;18.20;53.30;;;;;;4914728;29;20056;-78
2023/04/15 08:12:40;;;;;;;10.52;6.45;;;18.20;51.70;;;;;;4900578;29;20043;-76
2023/04/15 08:15:08;;;;;;;12.35;6.28;;;18.20;51.70;;;;;;4912649;29;20524;-75
2023/04/15 08:17:36;;;;;;;9.23;5.05;;;18.00;51.30;;;;;;4910110;29;20711;-74
2023/04/15 08:20:05;;;;;;;10.43;5.28;;;18.10;51.50;;;;;;4909993;29;20040;-76
2023/04/15 08:22:35;;;;;;;9.77;4.38;;;18.00;51.20;;;;;;4910991;29;20040;-75
2023/04/15 08:25:03;;;;;;;7.55;4.28;;;18.00;50.90;;;;;;4911711;29;20063;-77
2023/04/15 08:27:31;;;;;;;4.22;2.53;;;17.90;51.00;;;;;;4911123;29;20052;-76
2023/04/15 08:29:58;;;;;;;6.88;3.28;;;17.90;49.60;;;;;;4911093;29;20051;-76
2023/04/15 08:32:26;;;;;;;6.22;3.30;;;17.70;49.80;;;;;;4895204;29;20044;-74
2023/04/15 08:34:53;;;;;;;8.73;3.40;;;17.60;50.10;;;;;;4910151;29;20048;-76
2023/04/15 08:37:21;;;;;;;9.63;3.30;;;17.30;50.50;;;;;;4909878;29;20087;-75
2023/04/15 08:39:50;;;;;;;8.05;4.05;;;17.20;51.10;;;;;;4910864;29;20075;-74
2023/04/15 08:42:21;;;;;;;9.00;4.70;;;17.20;51.80;;;;;;4911135;29;20056;-75
2023/04/15 08:44:49;;;;;;;7.15;3.58;;;17.40;51.90;;;;;;4910390;29;20071;-75
2023/04/15 08:47:21;;;;;;;8.13;3.85;;;17.40;51.80;;;;;;4910059;29;20045;-76
2023/04/15 08:49:52;;;;;;;4.43;2.10;;;17.60;51.10;;;;;;4909992;29;20055;-75
2023/04/15 08:52:21;;;;;;;4.32;2.00;;;17.50;49.40;;;;;;4910624;29;20052;-76
2023/04/15 08:54:50;;;;;;;6.72;3.28;;;17.40;47.40;;;;;;4910709;29;20044;-74
2023/04/15 08:57:18;;;;;;;3.95;2.50;;;17.50;48.50;;;;;;4910903;29;20037;-75
2023/04/15 08:59:46;;;;;;;6.38;2.63;;;17.60;48.00;;;;;;4910885;29;20563;-74
2023/04/15 09:02:14;;;;;;;3.35;1.90;;;17.60;48.80;;;;;;4909466;29;20139;-75
2023/04/15 09:04:42;;;;;;;5.05;2.97;;;17.50;47.80;;;;;;4910541;29;20049;-74
2023/04/15 09:07:09;;;;;;;5.20;2.38;;;17.50;47.50;;;;;;4893696;29;20048;-75
2023/04/15 09:09:39;;;;;;;4.07;2.30;;;17.30;47.90;;;;;;4911708;29;20079;-74
2023/04/15 09:12:08;;;;;;;4.00;1.98;;;17.00;48.40;;;;;;4911582;29;20477;-75
2023/04/15 09:14:36;;;;;;;5.80;3.22;;;16.80;48.40;;;;;;4919494;29;20044;-75
2023/04/15 09:17:04;;;;;;;4.32;1.95;;;16.70;48.40;;;;;;4916589;29;20046;-75
2023/04/15 09:19:33;;;;;;;8.43;2.85;;;16.70;49.00;;;;;;4917333;29;20040;-77
2023/04/15 09:22:03;;;;;;;10.30;3.35;;;16.80;49.30;;;;;;4919933;29;20044;-76
2023/04/15 09:24:38;;;;;;;6.88;3.25;;;16.90;49.80;;;;;;4903777;29;20056;-75
2023/04/15 09:27:07;;;;;;;11.80;6.87;;;16.90;49.40;;;;;;4916046;29;20048;-76
2023/04/15 09:29:35;;;;;;;6.55;3.78;;;16.80;49.10;;;;;;4916525;29;20059;-75
2023/04/15 09:32:16;;;;;;;7.65;3.30;;;16.80;48.40;;;;;;4913797;29;20057;-78
2023/04/15 09:34:44;;;;;;;4.25;1.80;;;16.90;48.10;;;;;;4914790;29;20044;-74
2023/04/15 09:37:14;;;;;;;4.28;2.05;;;16.70;47.50;;;;;;4915160;29;20153;-75
2023/04/15 09:39:50;;;;;;;5.05;2.08;;;16.70;48.00;;;;;;4914874;29;20040;-75
2023/04/15 09:42:23;;;;;;;9.48;3.75;;;16.80;48.50;;;;;;4914811;29;20044;-75
2023/04/15 09:44:51;;;;;;;13.70;4.43;;;16.90;49.00;;;;;;4918829;29;20052;-74
2023/04/15 09:47:29;;;;;;;5.97;2.55;;;17.30;49.30;;;;;;4922974;29;20052;-75
2023/04/15 09:49:57;;;;;;;9.00;2.83;;;17.50;47.70;;;;;;4917475;29;20049;-74
2023/04/15 09:52:24;;;;;;;3.78;1.95;;;17.70;46.30;;;;;;4915078;29;20043;-76
2023/04/15 09:54:55;;;;;;;4.18;2.50;;;18.10;45.60;;;;;;4915668;29;20504;-76
2023/04/15 09:57:24;;;;;;;5.68;2.45;;;18.30;44.90;;;;;;4914448;29;20107;-76
2023/04/15 09:59:52;;;;;;;3.35;1.10;;;18.40;44.80;;;;;;4915786;29;20040;-76
2023/04/15 10:02:20;;;;;;;2.65;1.27;;;18.20;43.90;;;;;;4916426;29;20044;-74
2023/04/15 10:04:49;;;;;;;5.03;1.48;;;18.30;43.90;;;;;;4900070;29;20138;-76
2023/04/15 10:07:21;;;;;;;2.97;0.93;;;18.20;43.00;;;;;;4916596;29;20520;-75
2023/04/15 10:09:49;;;;;;;4.95;1.88;;;18.10;43.50;;;;;;4917721;29;20052;-76
2023/04/15 10:12:18;;;;;;;4.30;1.30;;;18.00;44.10;;;;;;4914714;29;20055;-75
2023/04/15 10:14:53;;;;;;;4.32;1.58;;;18.00;44.30;;;;;;4920491;29;20473;-75
2023/04/15 10:17:23;;;;;;;3.58;1.60;;;17.90;43.90;;;;;;4921110;29;20094;-75
2023/04/15 10:19:54;;;;;;;6.75;2.20;;;17.80;44.20;;;;;;4918154;29;20048;-77
2023/04/15 10:22:22;;;;;;;5.40;2.85;;;17.80;44.50;;;;;;4914380;29;20083;-75
2023/04/15 10:24:50;;;;;;;6.70;3.45;;;18.00;44.00;;;;;;4911546;29;20108;-75
2023/04/15 10:27:18;;;;;;;4.57;1.85;;;18.30;43.90;;;;;;4895543;29;20045;-77
2023/04/15 10:29:47;;;;;;;4.07;1.60;;;18.50;42.90;;;;;;4895852;29;20045;-76
2023/04/15 10:32:16;;;;;;;2.55;1.30;;;18.60;43.10;;;;;;4895060;29;20131;-75
2023/04/15 10:34:44;;;;;;;2.90;1.13;;;18.60;41.20;;;;;;4895346;29;20055;-76
2023/04/15 10:37:11;;;;;;;4.28;1.30;;;18.40;40.10;;;;;;4895541;29;20052;-74
2023/04/15 10:39:40;;;;;;;6.65;2.67;;;18.40;40.70;;;;;;4896905;29;20079;-75
2023/04/15 10:42:11;;;;;;;6.70;2.85;;;18.40;42.00;;;;;;4896186;29;20147;-76
2023/04/15 10:44:39;;;;;;;3.17;1.17;;;18.60;41.90;;;;;;4899999;29;20041;-76
2023/04/15 10:47:11;;;;;;;3.83;2.10;;;18.60;41.50;;;;;;4912223;29;20505;-76
2023/04/15 10:49:47;;;;;;;5.22;1.27;;;18.90;41.40;;;;;;4894838;29;20048;-76
2023/04/15 10:52:16;;;;;;;3.10;1.33;;;18.70;41.20;;;;;;4909111;29;20147;-75
2023/04/15 10:54:44;;;;;;;4.85;1.60;;;18.60;40.60;;;;;;4895945;29;20049;-76
2023/04/15 10:57:21;;;;;;;5.15;2.22;;;18.40;41.00;;;;;;4895011;29;20044;-76
2023/04/15 11:00:05;;;;;;;3.15;1.20;;;18.10;41.00;;;;;;4908938;29;20171;-76
2023/04/15 11:02:45;;;;;;;4.93;1.70;;;18.00;40.70;;;;;;4894940;29;20146;-75
2023/04/15 11:05:14;;;;;;;2.83;1.27;;;17.90;41.50;;;;;;4894741;29;20497;-77
2023/04/15 11:07:48;;;;;;;4.40;1.77;;;18.10;40.80;;;;;;4892932;29;20051;-75
2023/04/15 11:10:55;;;;;;;6.95;2.47;;;18.20;40.70;;;;;;4895060;29;20044;-75
2023/04/15 11:13:27;;;;;;;7.73;2.70;;;18.30;41.30;;;;;;4874711;29;20088;-75
2023/04/15 11:16:00;;;;;;;4.90;1.63;;;18.40;41.40;;;;;;4894447;29;20299;-76
2023/04/15 11:18:31;;;;;;;3.38;1.23;;;18.60;40.80;;;;;;4894108;29;20041;-75
2023/04/15 11:21:02;;;;;;;4.32;1.40;;;18.60;39.30;;;;;;4893867;29;20516;-76
2023/04/15 11:23:38;;;;;;;8.15;2.60;;;18.60;39.10;;;;;;4898392;29;20511;-75
2023/04/15 11:26:08;;;;;;;5.72;1.90;;;18.90;39.30;;;;;;4913222;29;20131;-76
2023/04/15 11:28:36;;;;;;;3.40;1.17;;;19.20;38.80;;;;;;4912029;29;20045;-75
2023/04/15 11:31:12;;;;;;;3.38;1.00;;;19.40;38.50;;;;;;4911816;29;20207;-76
2023/04/15 11:33:55;;;;;;;2.45;1.20;;;19.60;37.70;;;;;;4912686;29;20048;-75
2023/04/15 11:36:25;;;;;;;2.42;1.20;;;19.60;37.50;;;;;;4910497;29;20056;-75
2023/04/15 11:38:54;;;;;;;5.07;1.15;;;19.50;38.10;;;;;;4911701;29;20052;-75
2023/04/15 11:41:22;;;;;;;2.72;1.40;;;19.50;38.00;;;;;;4911702;29;20063;-75
2023/04/15 11:43:50;;;;;;;3.67;1.10;;;19.10;38.40;;;;;;4913868;29;20099;-74
2023/04/15 11:46:18;;;;;;;4.47;1.45;;;19.10;38.70;;;;;;4911446;29;20071;-76
2023/04/15 11:48:47;;;;;;;5.60;2.72;;;18.90;39.20;;;;;;4914629;29;20460;-75
2023/04/15 11:51:15;;;;;;;9.82;2.95;;;18.90;39.50;;;;;;4910253;29;20051;-75
2023/04/15 11:53:44;;;;;;;4.72;2.00;;;18.80;39.70;;;;;;4910842;29;20101;-75
2023/04/15 11:56:17;;;;;;;7.68;1.80;;;18.80;40.10;;;;;;4910865;29;20040;-74
2023/04/15 11:58:46;;;;;;;5.55;1.85;;;18.80;40.70;;;;;;4910894;29;20054;-75
2023/04/15 12:01:13;;;;;;;11.43;2.40;;;18.90;40.60;;;;;;4894836;29;20044;-74
2023/04/15 12:03:45;;;;;;;5.43;2.65;;;19.00;41.80;;;;;;4912640;29;20043;-76
2023/04/15 12:06:19;;;;;;;6.97;3.28;;;19.00;42.90;;;;;;4916011;29;20050;-75
2023/04/15 12:09:08;;;;;;;5.55;2.90;;;19.10;44.80;;;;;;4924293;29;20100;-74
2023/04/15 12:11:38;;;;;;;7.85;4.32;;;19.20;43.80;;;;;;4911841;29;20096;-76
2023/04/15 12:14:11;;;;;;;7.18;4.03;;;18.80;43.10;;;;;;4911377;29;20048;-75
2023/04/15 12:16:41;;;;;;;7.63;3.58;;;18.80;43.60;;;;;;4910454;29;20044;-75
2023/04/15 12:19:11;;;;;;;6.85;3.10;;;18.90;43.30;;;;;;4895564;29;20059;-74
2023/04/15 12:21:41;;;;;;;9.13;4.25;;;18.80;43.40;;;;;;4912103;29;20048;-75
2023/04/15 12:24:11;;;;;;;11.55;5.85;;;18.90;43.60;;;;;;4913212;29;20056;-77
2023/04/15 12:26:45;;;;;;;5.53;3.65;;;18.90;43.40;;;;;;4911219;29;20066;-77
2023/04/15 12:29:14;;;;;;;7.95;4.10;;;18.50;42.30;;;;;;4912113;29;20048;-75
2023/04/15 12:31:50;;;;;;;5.85;3.10;;;18.00;42.90;;;;;;4911488;29;20047;-75
2023/04/15 12:34:18;;;;;;;5.82;3.58;;;17.90;44.70;;;;;;4911152;29;20055;-76
2023/04/15 12:36:47;;;;;;;6.68;3.50;;;17.70;46.80;;;;;;4911660;29;20051;-76
2023/04/15 12:39:15;;;;;;;3.65;1.80;;;17.60;47.80;;;;;;4909353;29;20044;-78
2023/04/15 12:41:43;;;;;;;3.67;2.20;;;17.60;49.20;;;;;;4911603;29;20048;-76
2023/04/15 12:44:13;;;;;;;4.82;1.98;;;17.70;48.00;;;;;;4919941;29;20052;-76
2023/04/15 12:46:40;;;;;;;4.60;1.90;;;17.90;47.70;;;;;;4913773;29;20051;-75
2023/04/15 12:49:09;;;;;;;10.05;4.80;;;18.30;48.00;;;;;;4910379;29;20071;-73